APG604 RPVB-RPLL
Flight info
| Callsign | APG604 |
|---|---|
| Flight time | 0h 56m |
| Altitude | 30000 |
| Route | GALIA2A GALIA TR8 KLO TR19 MINOR B473 LAIYA LAIYA1A |
| Aircraft | A320/M-SDE3FGHIRWY/LB1 |
Departure
| Time | 2026-04-26 15:48 |
|---|---|
| Airport | Bacolod-Silay International Airport (RPVB) |
Arrival
| Time | 2026-04-26 16:44 |
|---|---|
| Airport | Ninoy Aquino International Airport (RPLL) |
| Time | Latitude | Longitude | Altitude | Speed | Heading |
|---|---|---|---|---|---|
| 2026-04-26 15:35 | 10.77673 | 123.01578 | 35 ft | 0 kts | 301° |
| 2026-04-26 15:40 | 10.77667 | 123.01588 | 35 ft | 2 kts | 302° |
| 2026-04-26 15:40 | 10.77659 | 123.01602 | 35 ft | 2 kts | 301° |
| 2026-04-26 15:40 | 10.77651 | 123.01615 | 35 ft | 2 kts | 302° |
| 2026-04-26 15:40 | 10.77645 | 123.01623 | 35 ft | 2 kts | 297° |
| 2026-04-26 15:41 | 10.77646 | 123.01642 | 35 ft | 2 kts | 236° |
| 2026-04-26 15:41 | 10.77654 | 123.01650 | 35 ft | 1 kts | 204° |
| 2026-04-26 15:41 | 10.77658 | 123.01652 | 35 ft | 0 kts | 210° |
| 2026-04-26 15:43 | 10.77658 | 123.01651 | 35 ft | 0 kts | 210° |
| 2026-04-26 15:43 | 10.77649 | 123.01646 | 35 ft | 2 kts | 209° |
| 2026-04-26 15:43 | 10.77609 | 123.01623 | 35 ft | 4 kts | 210° |
| 2026-04-26 15:44 | 10.77580 | 123.01605 | 35 ft | 5 kts | 210° |
| 2026-04-26 15:44 | 10.77476 | 123.01544 | 35 ft | 10 kts | 210° |
| 2026-04-26 15:44 | 10.77403 | 123.01511 | 35 ft | 11 kts | 187° |
| 2026-04-26 15:45 | 10.77297 | 123.01633 | 35 ft | 12 kts | 128° |
| 2026-04-26 15:45 | 10.77244 | 123.01659 | 35 ft | 13 kts | 179° |
| 2026-04-26 15:46 | 10.77016 | 123.01536 | 35 ft | 18 kts | 210° |
| 2026-04-26 15:46 | 10.76936 | 123.01455 | 35 ft | 12 kts | 231° |
| 2026-04-26 15:46 | 10.76893 | 123.01465 | 35 ft | 5 kts | 77° |
| 2026-04-26 15:46 | 10.76901 | 123.01474 | 35 ft | 5 kts | 31° |
| 2026-04-26 15:47 | 10.76972 | 123.01510 | 35 ft | 12 kts | 30° |
| 2026-04-26 15:47 | 10.77914 | 123.02060 | 37 ft | 138 kts | 30° |
| 2026-04-26 15:47 | 10.78819 | 123.02612 | 415 ft | 151 kts | 33° |
| 2026-04-26 15:48 | 10.79731 | 123.03139 | 973 ft | 152 kts | 32° |
| 2026-04-26 15:48 | 10.80638 | 123.03645 | 1618 ft | 148 kts | 32° |
| 2026-04-26 15:48 | 10.81552 | 123.04157 | 2073 ft | 155 kts | 32° |
| 2026-04-26 15:48 | 10.82525 | 123.04736 | 2416 ft | 170 kts | 33° |
| 2026-04-26 15:49 | 10.83594 | 123.05384 | 2765 ft | 187 kts | 33° |
| 2026-04-26 15:49 | 10.84764 | 123.06087 | 3193 ft | 202 kts | 32° |
| 2026-04-26 15:49 | 10.86172 | 123.06567 | 3505 ft | 230 kts | 4° |
| 2026-04-26 15:49 | 10.87823 | 123.06149 | 3917 ft | 258 kts | 333° |
| 2026-04-26 15:50 | 10.89104 | 123.04775 | 4364 ft | 282 kts | 301° |
| 2026-04-26 15:50 | 10.89942 | 123.02955 | 5051 ft | 289 kts | 296° |
| 2026-04-26 15:50 | 10.90715 | 123.01057 | 5809 ft | 292 kts | 295° |
| 2026-04-26 15:50 | 10.91476 | 122.99165 | 6566 ft | 293 kts | 295° |
| 2026-04-26 15:51 | 10.92260 | 122.97237 | 7298 ft | 295 kts | 295° |
| 2026-04-26 15:51 | 10.93047 | 122.95317 | 7997 ft | 298 kts | 295° |
| 2026-04-26 15:51 | 10.93847 | 122.93381 | 8682 ft | 300 kts | 295° |
| 2026-04-26 15:51 | 10.94669 | 122.91409 | 9358 ft | 303 kts | 296° |
| 2026-04-26 15:52 | 10.95809 | 122.89651 | 9987 ft | 301 kts | 319° |
| 2026-04-26 15:52 | 10.97469 | 122.88335 | 10612 ft | 302 kts | 328° |
| 2026-04-26 15:52 | 10.99262 | 122.87147 | 10929 ft | 317 kts | 329° |
| 2026-04-26 15:52 | 11.00531 | 122.86314 | 11114 ft | 327 kts | 329° |
| 2026-04-26 15:53 | 11.03148 | 122.84544 | 11457 ft | 348 kts | 327° |
| 2026-04-26 15:53 | 11.05185 | 122.83123 | 11697 ft | 362 kts | 327° |
| 2026-04-26 15:53 | 11.07301 | 122.81626 | 11922 ft | 375 kts | 327° |
| 2026-04-26 15:53 | 11.09467 | 122.80081 | 12164 ft | 386 kts | 326° |
| 2026-04-26 15:54 | 11.11692 | 122.78487 | 12590 ft | 391 kts | 326° |
| 2026-04-26 15:54 | 11.13925 | 122.76884 | 13082 ft | 393 kts | 326° |
| 2026-04-26 15:54 | 11.16172 | 122.75268 | 13547 ft | 395 kts | 326° |
| 2026-04-26 15:54 | 11.18435 | 122.73640 | 13996 ft | 398 kts | 326° |
| 2026-04-26 15:55 | 11.20704 | 122.72008 | 14433 ft | 400 kts | 326° |
| 2026-04-26 15:55 | 11.22987 | 122.70366 | 14858 ft | 402 kts | 326° |
| 2026-04-26 15:55 | 11.25284 | 122.68715 | 15270 ft | 404 kts | 326° |
| 2026-04-26 15:55 | 11.27576 | 122.67065 | 15668 ft | 407 kts | 326° |
| 2026-04-26 15:56 | 11.29895 | 122.65397 | 16057 ft | 409 kts | 326° |
| 2026-04-26 15:56 | 11.32223 | 122.63746 | 16428 ft | 411 kts | 326° |
| 2026-04-26 15:56 | 11.34611 | 122.62071 | 16796 ft | 413 kts | 326° |
| 2026-04-26 15:56 | 11.36977 | 122.60416 | 17147 ft | 415 kts | 326° |
| 2026-04-26 15:57 | 11.39353 | 122.58751 | 17488 ft | 417 kts | 326° |
| 2026-04-26 15:57 | 11.41749 | 122.57071 | 17828 ft | 419 kts | 326° |
| 2026-04-26 15:57 | 11.44152 | 122.55384 | 18163 ft | 420 kts | 326° |
| 2026-04-26 15:57 | 11.45781 | 122.54239 | 18388 ft | 421 kts | 326° |
| 2026-04-26 15:58 | 11.49047 | 122.51943 | 18823 ft | 423 kts | 326° |
| 2026-04-26 15:58 | 11.51478 | 122.50233 | 19128 ft | 425 kts | 326° |
| 2026-04-26 15:58 | 11.53921 | 122.48512 | 19430 ft | 426 kts | 326° |
| 2026-04-26 15:58 | 11.56378 | 122.46783 | 19737 ft | 428 kts | 326° |
| 2026-04-26 15:59 | 11.58823 | 122.45061 | 20024 ft | 429 kts | 326° |
| 2026-04-26 15:59 | 11.61281 | 122.43331 | 20307 ft | 431 kts | 326° |
| 2026-04-26 15:59 | 11.63805 | 122.41553 | 20583 ft | 432 kts | 326° |
| 2026-04-26 15:59 | 11.66352 | 122.39872 | 20854 ft | 434 kts | 331° |
| 2026-04-26 16:00 | 11.69110 | 122.38517 | 21126 ft | 435 kts | 338° |
| 2026-04-26 16:00 | 11.72061 | 122.37532 | 21378 ft | 436 kts | 346° |
| 2026-04-26 16:00 | 11.75062 | 122.36833 | 21643 ft | 437 kts | 348° |
| 2026-04-26 16:00 | 11.78098 | 122.36182 | 21883 ft | 439 kts | 348° |
| 2026-04-26 16:01 | 11.81190 | 122.35528 | 22130 ft | 440 kts | 348° |
| 2026-04-26 16:01 | 11.84236 | 122.34879 | 22365 ft | 442 kts | 347° |
| 2026-04-26 16:01 | 11.87285 | 122.34225 | 22594 ft | 443 kts | 347° |
| 2026-04-26 16:01 | 11.90373 | 122.33559 | 22816 ft | 445 kts | 347° |
| 2026-04-26 16:02 | 11.93473 | 122.32889 | 23033 ft | 447 kts | 347° |
| 2026-04-26 16:02 | 11.96636 | 122.32202 | 23238 ft | 449 kts | 347° |
| 2026-04-26 16:02 | 11.99739 | 122.31529 | 23430 ft | 451 kts | 347° |
| 2026-04-26 16:02 | 12.01868 | 122.31067 | 23569 ft | 452 kts | 347° |
| 2026-04-26 16:03 | 12.06067 | 122.30154 | 23842 ft | 454 kts | 347° |
| 2026-04-26 16:03 | 12.09176 | 122.29478 | 24035 ft | 456 kts | 347° |
| 2026-04-26 16:03 | 12.12536 | 122.28748 | 24246 ft | 457 kts | 347° |
| 2026-04-26 16:03 | 12.15872 | 122.28024 | 24453 ft | 459 kts | 347° |
| 2026-04-26 16:04 | 12.19094 | 122.27322 | 24632 ft | 461 kts | 347° |
| 2026-04-26 16:04 | 12.22262 | 122.26633 | 24803 ft | 462 kts | 347° |
| 2026-04-26 16:04 | 12.25498 | 122.25929 | 24976 ft | 464 kts | 347° |
| 2026-04-26 16:04 | 12.28762 | 122.25217 | 25149 ft | 466 kts | 347° |
| 2026-04-26 16:05 | 12.32010 | 122.24507 | 25318 ft | 467 kts | 345° |
| 2026-04-26 16:05 | 12.35152 | 122.23579 | 25461 ft | 467 kts | 339° |
| 2026-04-26 16:05 | 12.37211 | 122.22732 | 25563 ft | 468 kts | 334° |
| 2026-04-26 16:05 | 12.41101 | 122.20549 | 25768 ft | 468 kts | 326° |
| 2026-04-26 16:06 | 12.43842 | 122.18684 | 25932 ft | 469 kts | 324° |
| 2026-04-26 16:06 | 12.46586 | 122.16766 | 26081 ft | 470 kts | 324° |
| 2026-04-26 16:06 | 12.49312 | 122.14852 | 26224 ft | 471 kts | 324° |
| 2026-04-26 16:06 | 12.52074 | 122.12918 | 26367 ft | 472 kts | 324° |
| 2026-04-26 16:07 | 12.54847 | 122.10981 | 26505 ft | 474 kts | 324° |
| 2026-04-26 16:07 | 12.57606 | 122.09057 | 26638 ft | 475 kts | 324° |
| 2026-04-26 16:07 | 12.60332 | 122.07159 | 26766 ft | 475 kts | 324° |
| 2026-04-26 16:07 | 12.63107 | 122.05227 | 26928 ft | 475 kts | 324° |
| 2026-04-26 16:08 | 12.65892 | 122.03289 | 27105 ft | 475 kts | 324° |
| 2026-04-26 16:08 | 12.67769 | 122.01982 | 27221 ft | 475 kts | 324° |
| 2026-04-26 16:08 | 12.71434 | 121.99429 | 27439 ft | 475 kts | 324° |
| 2026-04-26 16:08 | 12.74224 | 121.97488 | 27711 ft | 473 kts | 324° |
| 2026-04-26 16:09 | 12.76943 | 121.95596 | 28329 ft | 462 kts | 324° |
| 2026-04-26 16:09 | 12.79546 | 121.93786 | 29014 ft | 451 kts | 323° |
| 2026-04-26 16:09 | 12.82133 | 121.91987 | 29606 ft | 438 kts | 323° |
| 2026-04-26 16:09 | 12.84627 | 121.90247 | 29875 ft | 439 kts | 323° |
| 2026-04-26 16:10 | 12.87194 | 121.88454 | 29891 ft | 446 kts | 323° |
| 2026-04-26 16:10 | 12.92438 | 121.84792 | 29892 ft | 459 kts | 323° |
| 2026-04-26 16:11 | 12.97779 | 121.81063 | 29897 ft | 471 kts | 323° |
| 2026-04-26 16:11 | 13.03366 | 121.77161 | 29481 ft | 481 kts | 323° |
| 2026-04-26 16:11 | 13.06132 | 121.75231 | 28757 ft | 480 kts | 323° |
| 2026-04-26 16:12 | 13.08883 | 121.73309 | 27914 ft | 478 kts | 324° |
| 2026-04-26 16:12 | 13.11634 | 121.71387 | 27054 ft | 477 kts | 324° |
| 2026-04-26 16:12 | 13.17241 | 121.67465 | 25660 ft | 465 kts | 324° |
| 2026-04-26 16:13 | 13.19927 | 121.65588 | 25075 ft | 461 kts | 324° |
| 2026-04-26 16:13 | 13.22573 | 121.63738 | 24547 ft | 455 kts | 324° |
| 2026-04-26 16:13 | 13.25206 | 121.61896 | 24025 ft | 450 kts | 324° |
| 2026-04-26 16:13 | 13.27797 | 121.60082 | 23513 ft | 446 kts | 324° |
| 2026-04-26 16:14 | 13.30362 | 121.58287 | 23002 ft | 441 kts | 324° |
| 2026-04-26 16:14 | 13.32902 | 121.56508 | 22486 ft | 437 kts | 325° |
| 2026-04-26 16:14 | 13.37914 | 121.52996 | 21419 ft | 429 kts | 325° |
| 2026-04-26 16:15 | 13.40366 | 121.51279 | 21012 ft | 419 kts | 325° |
| 2026-04-26 16:15 | 13.42773 | 121.49591 | 20676 ft | 408 kts | 325° |
| 2026-04-26 16:15 | 13.44328 | 121.48502 | 20518 ft | 399 kts | 325° |
| 2026-04-26 16:16 | 13.49607 | 121.44798 | 19912 ft | 373 kts | 325° |
| 2026-04-26 16:16 | 13.51698 | 121.43330 | 19697 ft | 362 kts | 325° |
| 2026-04-26 16:16 | 13.53750 | 121.41890 | 19562 ft | 350 kts | 325° |
| 2026-04-26 16:16 | 13.55748 | 121.40488 | 19399 ft | 339 kts | 325° |
| 2026-04-26 16:17 | 13.57650 | 121.39148 | 19239 ft | 329 kts | 324° |
| 2026-04-26 16:17 | 13.59522 | 121.37772 | 18829 ft | 328 kts | 323° |
| 2026-04-26 16:17 | 13.61365 | 121.36392 | 18412 ft | 328 kts | 323° |
| 2026-04-26 16:17 | 13.63195 | 121.35020 | 17999 ft | 327 kts | 323° |
| 2026-04-26 16:18 | 13.65035 | 121.33645 | 17605 ft | 327 kts | 323° |
| 2026-04-26 16:18 | 13.68707 | 121.30901 | 16801 ft | 325 kts | 323° |
| 2026-04-26 16:19 | 13.72378 | 121.28162 | 15973 ft | 325 kts | 323° |
| 2026-04-26 16:19 | 13.74216 | 121.26791 | 15560 ft | 325 kts | 324° |
| 2026-04-26 16:19 | 13.77247 | 121.24530 | 14879 ft | 324 kts | 324° |
| 2026-04-26 16:20 | 13.79673 | 121.22721 | 14346 ft | 323 kts | 324° |
| 2026-04-26 16:20 | 13.82716 | 121.20449 | 13682 ft | 322 kts | 324° |
| 2026-04-26 16:20 | 13.85125 | 121.18650 | 13158 ft | 320 kts | 324° |
| 2026-04-26 16:21 | 13.86944 | 121.17292 | 12764 ft | 319 kts | 324° |
| 2026-04-26 16:21 | 13.88714 | 121.15970 | 12381 ft | 317 kts | 324° |
| 2026-04-26 16:21 | 13.90507 | 121.14631 | 12002 ft | 315 kts | 324° |
| 2026-04-26 16:21 | 13.92275 | 121.13309 | 11627 ft | 313 kts | 325° |
| 2026-04-26 16:22 | 13.94047 | 121.11985 | 11254 ft | 311 kts | 325° |
| 2026-04-26 16:22 | 13.95777 | 121.10692 | 10878 ft | 310 kts | 325° |
| 2026-04-26 16:22 | 13.97539 | 121.09374 | 10508 ft | 307 kts | 325° |
| 2026-04-26 16:22 | 13.99243 | 121.08099 | 10145 ft | 305 kts | 325° |
| 2026-04-26 16:23 | 14.00976 | 121.06803 | 9789 ft | 303 kts | 326° |
| 2026-04-26 16:23 | 14.02688 | 121.05523 | 9427 ft | 301 kts | 326° |
| 2026-04-26 16:23 | 14.04381 | 121.04257 | 9069 ft | 299 kts | 326° |
| 2026-04-26 16:23 | 14.06056 | 121.03007 | 8719 ft | 297 kts | 326° |
| 2026-04-26 16:24 | 14.07704 | 121.01774 | 8374 ft | 295 kts | 326° |
| 2026-04-26 16:24 | 14.09392 | 121.00511 | 8021 ft | 293 kts | 326° |
| 2026-04-26 16:24 | 14.11094 | 120.99237 | 7671 ft | 290 kts | 326° |
| 2026-04-26 16:24 | 14.12734 | 120.98009 | 7327 ft | 288 kts | 326° |
| 2026-04-26 16:25 | 14.14357 | 120.96793 | 6995 ft | 286 kts | 326° |
| 2026-04-26 16:25 | 14.15940 | 120.95607 | 6890 ft | 276 kts | 326° |
| 2026-04-26 16:25 | 14.17519 | 120.94478 | 6796 ft | 266 kts | 330° |
| 2026-04-26 16:25 | 14.19103 | 120.93510 | 6492 ft | 264 kts | 333° |
| 2026-04-26 16:26 | 14.20800 | 120.92511 | 6157 ft | 263 kts | 333° |
| 2026-04-26 16:26 | 14.21884 | 120.91876 | 5942 ft | 262 kts | 333° |
| 2026-04-26 16:26 | 14.24036 | 120.90610 | 5532 ft | 259 kts | 333° |
| 2026-04-26 16:26 | 14.25582 | 120.89698 | 5350 ft | 253 kts | 333° |
| 2026-04-26 16:27 | 14.27079 | 120.88811 | 5240 ft | 243 kts | 333° |
| 2026-04-26 16:27 | 14.28578 | 120.87931 | 5047 ft | 239 kts | 333° |
| 2026-04-26 16:27 | 14.30029 | 120.87093 | 4759 ft | 238 kts | 333° |
| 2026-04-26 16:27 | 14.31487 | 120.86253 | 4490 ft | 237 kts | 333° |
| 2026-04-26 16:28 | 14.32921 | 120.85425 | 4206 ft | 237 kts | 333° |
| 2026-04-26 16:28 | 14.34413 | 120.84562 | 3915 ft | 236 kts | 333° |
| 2026-04-26 16:28 | 14.35839 | 120.83736 | 3640 ft | 235 kts | 333° |
| 2026-04-26 16:28 | 14.37259 | 120.82921 | 3372 ft | 233 kts | 337° |
| 2026-04-26 16:29 | 14.38819 | 120.82602 | 3065 ft | 226 kts | 10° |
| 2026-04-26 16:29 | 14.40225 | 120.83213 | 2900 ft | 214 kts | 44° |
| 2026-04-26 16:29 | 14.41156 | 120.84386 | 2919 ft | 203 kts | 59° |
| 2026-04-26 16:29 | 14.41860 | 120.85633 | 2925 ft | 196 kts | 62° |
| 2026-04-26 16:30 | 14.42516 | 120.86873 | 2812 ft | 196 kts | 62° |
| 2026-04-26 16:30 | 14.43170 | 120.88092 | 2656 ft | 187 kts | 62° |
| 2026-04-26 16:30 | 14.43800 | 120.89241 | 2391 ft | 184 kts | 62° |
| 2026-04-26 16:30 | 14.44424 | 120.90366 | 2127 ft | 173 kts | 61° |
| 2026-04-26 16:31 | 14.45008 | 120.91415 | 1901 ft | 156 kts | 61° |
| 2026-04-26 16:31 | 14.45528 | 120.92351 | 1678 ft | 143 kts | 60° |
| 2026-04-26 16:31 | 14.46015 | 120.93227 | 1498 ft | 139 kts | 61° |
| 2026-04-26 16:31 | 14.46493 | 120.94088 | 1334 ft | 139 kts | 60° |
| 2026-04-26 16:32 | 14.46974 | 120.94957 | 1165 ft | 138 kts | 60° |
| 2026-04-26 16:32 | 14.47293 | 120.95529 | 1056 ft | 138 kts | 60° |
| 2026-04-26 16:32 | 14.47934 | 120.96680 | 821 ft | 138 kts | 61° |
| 2026-04-26 16:32 | 14.48411 | 120.97541 | 646 ft | 137 kts | 60° |
| 2026-04-26 16:33 | 14.48892 | 120.98405 | 459 ft | 137 kts | 62° |
| 2026-04-26 16:33 | 14.49391 | 120.99307 | 286 ft | 137 kts | 62° |
| 2026-04-26 16:33 | 14.49877 | 121.00183 | 108 ft | 136 kts | 62° |
| 2026-04-26 16:33 | 14.50418 | 121.01152 | 441 ft | 148 kts | 62° |
| 2026-04-26 16:34 | 14.50982 | 121.02168 | 1342 ft | 145 kts | 61° |
| 2026-04-26 16:34 | 14.51520 | 121.03133 | 2225 ft | 145 kts | 61° |
| 2026-04-26 16:34 | 14.52075 | 121.04188 | 2688 ft | 154 kts | 73° |
| 2026-04-26 16:34 | 14.51984 | 121.05339 | 2945 ft | 176 kts | 116° |
| 2026-04-26 16:35 | 14.51058 | 121.06277 | 3300 ft | 196 kts | 144° |
| 2026-04-26 16:35 | 14.49787 | 121.07018 | 3654 ft | 217 kts | 149° |
| 2026-04-26 16:35 | 14.48400 | 121.07764 | 3937 ft | 227 kts | 150° |
| 2026-04-26 16:35 | 14.46905 | 121.08294 | 3968 ft | 231 kts | 175° |
| 2026-04-26 16:36 | 14.45302 | 121.07956 | 3978 ft | 236 kts | 208° |
| 2026-04-26 16:36 | 14.44107 | 121.06823 | 3991 ft | 238 kts | 233° |
| 2026-04-26 16:36 | 14.43167 | 121.05290 | 3995 ft | 239 kts | 239° |
| 2026-04-26 16:36 | 14.42268 | 121.03648 | 4003 ft | 239 kts | 240° |
| 2026-04-26 16:37 | 14.41407 | 121.02042 | 4013 ft | 239 kts | 240° |
| 2026-04-26 16:37 | 14.40487 | 121.00325 | 4006 ft | 238 kts | 240° |
| 2026-04-26 16:37 | 14.39540 | 120.98561 | 3999 ft | 238 kts | 240° |
| 2026-04-26 16:37 | 14.38952 | 120.97467 | 3998 ft | 238 kts | 240° |
| 2026-04-26 16:38 | 14.37726 | 120.95194 | 3998 ft | 238 kts | 240° |
| 2026-04-26 16:38 | 14.36899 | 120.93658 | 4003 ft | 238 kts | 240° |
| 2026-04-26 16:38 | 14.36086 | 120.92144 | 4000 ft | 238 kts | 240° |
| 2026-04-26 16:38 | 14.35259 | 120.90600 | 3993 ft | 238 kts | 240° |
| 2026-04-26 16:39 | 14.34625 | 120.88946 | 3987 ft | 239 kts | 265° |
| 2026-04-26 16:39 | 14.34861 | 120.87277 | 3990 ft | 237 kts | 298° |
| 2026-04-26 16:39 | 14.35877 | 120.85995 | 3825 ft | 232 kts | 330° |
| 2026-04-26 16:39 | 14.37375 | 120.85474 | 3582 ft | 222 kts | 4° |
| 2026-04-26 16:40 | 14.38868 | 120.85799 | 3350 ft | 214 kts | 23° |
| 2026-04-26 16:40 | 14.40239 | 120.86381 | 3072 ft | 213 kts | 26° |
| 2026-04-26 16:40 | 14.41626 | 120.87029 | 2812 ft | 209 kts | 27° |
| 2026-04-26 16:40 | 14.42833 | 120.87794 | 2549 ft | 202 kts | 46° |
| 2026-04-26 16:41 | 14.43653 | 120.88905 | 2267 ft | 186 kts | 59° |
| 2026-04-26 16:41 | 14.44267 | 120.90005 | 1980 ft | 169 kts | 62° |
| 2026-04-26 16:41 | 14.44806 | 120.91021 | 1792 ft | 148 kts | 62° |
| 2026-04-26 16:41 | 14.45286 | 120.91909 | 1760 ft | 139 kts | 62° |
| 2026-04-26 16:42 | 14.45764 | 120.92779 | 1620 ft | 138 kts | 61° |
| 2026-04-26 16:42 | 14.46265 | 120.93681 | 1433 ft | 137 kts | 61° |
| 2026-04-26 16:42 | 14.46791 | 120.94627 | 1240 ft | 137 kts | 60° |
| 2026-04-26 16:42 | 14.47277 | 120.95500 | 1058 ft | 136 kts | 61° |
| 2026-04-26 16:43 | 14.47798 | 120.96439 | 869 ft | 136 kts | 60° |
| 2026-04-26 16:43 | 14.48311 | 120.97360 | 678 ft | 136 kts | 61° |
| 2026-04-26 16:43 | 14.48800 | 120.98242 | 497 ft | 135 kts | 61° |
| 2026-04-26 16:43 | 14.49276 | 120.99105 | 313 ft | 134 kts | 63° |
| 2026-04-26 16:44 | 14.49750 | 120.99954 | 141 ft | 135 kts | 62° |
| 2026-04-26 16:44 | 14.50222 | 121.00802 | 83 ft | 123 kts | 59° |
| 2026-04-26 16:44 | 14.50575 | 121.01437 | 82 ft | 74 kts | 61° |
| 2026-04-26 16:44 | 14.50774 | 121.01724 | 82 ft | 38 kts | 39° |
| 2026-04-26 16:45 | 14.50886 | 121.01788 | 82 ft | 9 kts | 341° |
| 2026-04-26 16:45 | 14.50907 | 121.01752 | 82 ft | 3 kts | 256° |
| 2026-04-26 16:45 | 14.50892 | 121.01718 | 82 ft | 6 kts | 241° |
| 2026-04-26 16:45 | 14.50862 | 121.01666 | 82 ft | 9 kts | 240° |
| 2026-04-26 16:46 | 14.50820 | 121.01592 | 82 ft | 11 kts | 240° |
| 2026-04-26 16:46 | 14.50775 | 121.01509 | 82 ft | 12 kts | 240° |
| 2026-04-26 16:46 | 14.50724 | 121.01418 | 82 ft | 13 kts | 240° |
| 2026-04-26 16:46 | 14.50690 | 121.01336 | 82 ft | 7 kts | 284° |
| 2026-04-26 16:47 | 14.50741 | 121.01302 | 82 ft | 8 kts | 335° |
| 2026-04-26 16:47 | 14.50800 | 121.01266 | 82 ft | 8 kts | 330° |
| 2026-04-26 16:47 | 14.50826 | 121.01251 | 82 ft | 2 kts | 330° |
| 2026-04-26 16:47 | 14.50828 | 121.01250 | 82 ft | 0 kts | 330° |